createdAt,value
2024-02-20T00:07:36.737Z,100532.60
2024-02-20T00:10:27.371Z,100528.80
2024-02-20T00:32:05.550Z,100528.80
2024-02-20T00:34:37.018Z,100519.20
2024-02-20T00:37:07.879Z,100518.00
2024-02-20T00:39:38.550Z,100524.20
2024-02-20T00:42:10.122Z,100522.00
2024-02-20T00:44:45.444Z,100524.40
2024-02-20T00:47:16.780Z,100525.80
2024-02-20T00:49:48.957Z,100517.80
2024-02-20T00:52:23.032Z,100514.00
2024-02-20T00:54:54.472Z,100520.40
2024-02-20T00:57:34.048Z,100520.80
2024-02-20T01:00:15.570Z,100519.20
2024-02-20T01:02:48.787Z,100515.20
2024-02-20T01:05:21.345Z,100519.00
2024-02-20T01:07:52.570Z,100517.80
2024-02-20T01:10:28.309Z,100519.20
2024-02-20T01:13:09.105Z,100509.60
2024-02-20T01:15:40.973Z,100506.40
2024-02-20T01:18:13.971Z,100509.80
2024-02-20T01:21:19.266Z,100513.40
2024-02-20T01:23:50.688Z,100512.00
2024-02-20T01:26:22.879Z,100513.00
2024-02-20T01:28:55.595Z,100513.20
2024-02-20T01:31:28.707Z,100511.00
2024-02-20T01:34:00.823Z,100508.40
2024-02-20T01:36:32.696Z,100510.00
2024-02-20T01:39:03.834Z,100510.20
2024-02-20T01:41:34.939Z,100504.00
2024-02-20T01:44:06.766Z,100504.00
2024-02-20T01:46:38.723Z,100511.60
2024-02-20T01:49:10.601Z,100502.60
2024-02-20T01:51:42.523Z,100498.60
2024-02-20T01:54:13.632Z,100502.80
2024-02-20T01:56:48.362Z,100501.20
2024-02-20T01:59:19.395Z,100499.60
2024-02-20T02:01:50.260Z,100499.80
2024-02-20T02:04:21.769Z,100496.60
2024-02-20T02:06:52.669Z,100495.20
2024-02-20T02:09:23.696Z,100496.80
2024-02-20T02:11:55.055Z,100493.60
2024-02-20T02:14:28.070Z,100498.20
2024-02-20T02:17:01.419Z,100492.20
2024-02-20T02:19:32.745Z,100489.00
2024-02-20T02:22:04.213Z,100484.60
2024-02-20T02:24:35.562Z,100480.80
2024-02-20T02:27:07.623Z,100481.80
2024-02-20T02:29:38.496Z,100486.60
2024-02-20T02:32:10.218Z,100482.80
2024-02-20T02:34:41.145Z,100481.00
2024-02-20T02:37:12.407Z,100488.60
2024-02-20T02:39:43.605Z,100487.00
2024-02-20T02:42:15.246Z,100488.20
2024-02-20T02:44:47.432Z,100483.80
2024-02-20T02:47:18.807Z,100484.20
2024-02-20T02:49:49.739Z,100488.00
2024-02-20T02:52:23.180Z,100485.60
2024-02-20T02:54:53.870Z,100481.40
2024-02-20T02:59:32.440Z,100482.80
2024-02-20T03:02:07.429Z,100481.80
2024-02-20T03:05:27.711Z,100480.60
2024-02-20T03:08:03.781Z,100485.40
2024-02-20T03:10:38.505Z,100478.20
2024-02-20T03:13:13.804Z,100477.40
2024-02-20T03:15:49.369Z,100478.00
2024-02-20T03:18:25.004Z,100472.80
2024-02-20T03:20:59.928Z,100478.80
2024-02-20T03:23:37.369Z,100479.00
2024-02-20T03:26:12.284Z,100476.40
2024-02-20T03:28:47.494Z,100475.20
2024-02-20T03:31:22.359Z,100468.60
2024-02-20T03:33:57.039Z,100476.40
2024-02-20T03:36:32.518Z,100475.60
2024-02-20T03:39:08.767Z,100471.00
2024-02-20T03:41:43.763Z,100477.40
2024-02-20T03:44:18.696Z,100472.20
2024-02-20T03:46:53.357Z,100477.40
2024-02-20T04:02:58.444Z,100480.20
2024-02-20T04:05:35.195Z,100485.80
2024-02-20T04:08:11.211Z,100482.60
2024-02-20T04:10:46.159Z,100487.00
2024-02-20T04:13:21.202Z,100486.80
2024-02-20T04:15:56.089Z,100485.00
2024-02-20T04:18:31.058Z,100482.40
2024-02-20T04:21:06.275Z,100488.40
2024-02-20T04:23:41.098Z,100488.40
2024-02-20T04:26:15.608Z,100492.20
2024-02-20T04:28:50.545Z,100487.40
2024-02-20T04:31:25.418Z,100489.60
2024-02-20T04:34:03.092Z,100487.60
2024-02-20T04:36:37.996Z,100493.00
2024-02-20T04:39:12.848Z,100498.40
2024-02-20T04:41:47.568Z,100495.20
2024-02-20T04:44:22.794Z,100503.00
2024-02-20T04:46:57.428Z,100503.20
2024-02-20T04:49:32.752Z,100506.00
2024-02-20T04:52:07.904Z,100504.40
2024-02-20T04:54:42.806Z,100500.20
2024-02-20T04:57:17.480Z,100501.40
2024-02-20T04:59:52.364Z,100499.40
2024-02-20T05:02:27.770Z,100495.20
2024-02-20T05:05:02.918Z,100492.20
2024-02-20T05:07:37.629Z,100502.80
2024-02-20T05:10:15.193Z,100494.80
2024-02-20T05:12:50.992Z,100497.20
2024-02-20T05:15:27.460Z,100507.60
2024-02-20T05:18:02.296Z,100507.60
2024-02-20T05:20:37.353Z,100504.20
2024-02-20T05:23:15.188Z,100506.00
2024-02-20T05:25:50.424Z,100512.00
2024-02-20T05:28:25.456Z,100509.40
2024-02-20T05:31:00.660Z,100505.60
2024-02-20T05:33:35.295Z,100509.20
2024-02-20T05:36:10.777Z,100510.60
2024-02-20T05:38:45.461Z,100513.40
2024-02-20T05:41:20.127Z,100509.20
2024-02-20T05:43:58.668Z,100515.20
2024-02-20T05:46:35.537Z,100511.60
2024-02-20T05:49:10.862Z,100511.00
2024-02-20T05:51:47.358Z,100511.80
2024-02-20T05:54:22.227Z,100510.60
2024-02-20T05:56:57.248Z,100519.80
2024-02-20T05:59:32.004Z,100512.60
2024-02-20T06:02:06.841Z,100515.00
2024-02-20T06:04:42.335Z,100517.00
2024-02-20T06:07:19.389Z,100524.20
2024-02-20T06:09:53.993Z,100525.60
2024-02-20T06:12:28.838Z,100530.80
2024-02-20T06:15:05.792Z,100527.80
2024-02-20T06:17:42.243Z,100531.80
2024-02-20T06:20:17.789Z,100535.80
2024-02-20T06:22:52.496Z,100539.40
2024-02-20T06:25:27.816Z,100541.80
2024-02-20T06:28:02.620Z,100545.00
2024-02-20T06:30:37.613Z,100550.60
2024-02-20T06:33:12.584Z,100550.20
2024-02-20T06:35:47.469Z,100551.40
2024-02-20T06:38:22.463Z,100546.40
2024-02-20T06:40:57.281Z,100552.00
2024-02-20T06:43:32.510Z,100553.60
2024-02-20T06:46:07.663Z,100556.40
2024-02-20T06:48:45.610Z,100559.60
2024-02-20T06:51:23.469Z,100562.60
2024-02-20T06:53:58.528Z,100563.00
2024-02-20T06:56:33.903Z,100570.20
2024-02-20T06:59:09.832Z,100572.20
2024-02-20T07:01:45.473Z,100572.00
2024-02-20T07:04:20.498Z,100575.80
2024-02-20T07:06:57.156Z,100575.60
2024-02-20T07:09:33.808Z,100573.20
2024-02-20T07:12:12.458Z,100577.80
2024-02-20T07:14:48.018Z,100581.20
2024-02-20T07:17:25.365Z,100580.60
2024-02-20T07:20:06.033Z,100583.20
2024-02-20T07:22:51.267Z,100583.20
2024-02-20T07:25:49.696Z,100583.20
2024-02-20T07:28:32.959Z,100591.00
2024-02-20T07:31:10.198Z,100597.00
2024-02-20T07:33:50.759Z,100595.20
2024-02-20T07:36:32.552Z,100601.80
2024-02-20T07:39:08.506Z,100603.80
2024-02-20T07:41:45.990Z,100608.80
2024-02-20T07:44:22.276Z,100609.00
2024-02-20T07:46:58.722Z,100599.80
2024-02-20T07:49:34.388Z,100610.20
2024-02-20T07:52:10.575Z,100611.40
2024-02-20T07:54:52.414Z,100612.60
2024-02-20T07:57:27.998Z,100608.00
2024-02-20T08:00:13.024Z,100607.40
2024-02-20T08:02:54.977Z,100607.60
2024-02-20T08:05:30.186Z,100620.00
2024-02-20T08:08:04.698Z,100606.20
2024-02-20T08:10:39.188Z,100615.40
2024-02-20T08:13:14.386Z,100609.60
2024-02-20T08:15:49.102Z,100609.80
2024-02-20T08:18:25.998Z,100614.60
2024-02-20T08:21:01.428Z,100614.60
2024-02-20T08:23:36.895Z,100609.40
2024-02-20T08:26:35.037Z,100609.20
2024-02-20T08:29:13.683Z,100607.40
2024-02-20T08:31:48.844Z,100617.40
2024-02-20T08:34:24.453Z,100612.20
2024-02-20T08:37:00.070Z,100613.40
2024-02-20T08:39:35.282Z,100614.60
2024-02-20T08:42:11.696Z,100616.20
2024-02-20T08:44:48.756Z,100611.60
2024-02-20T08:47:24.494Z,100608.60
2024-02-20T08:50:00.594Z,100611.40
2024-02-20T08:52:37.004Z,100618.40
2024-02-20T08:55:17.428Z,100619.80
2024-02-20T08:57:54.920Z,100620.20
2024-02-20T09:00:41.502Z,100616.00
2024-02-20T09:03:18.257Z,100620.40
2024-02-20T09:05:55.160Z,100624.40
2024-02-20T09:08:30.906Z,100620.00
2024-02-20T09:11:06.001Z,100619.40
2024-02-20T09:13:45.488Z,100622.40
2024-02-20T09:16:20.861Z,100624.80
2024-02-20T09:18:57.427Z,100626.80
2024-02-20T09:21:32.580Z,100628.80
2024-02-20T09:24:08.129Z,100630.80
2024-02-20T09:26:44.626Z,100631.40
2024-02-20T09:29:22.969Z,100633.00
2024-02-20T09:32:36.097Z,100634.60
2024-02-20T09:35:12.827Z,100632.00
2024-02-20T09:37:48.119Z,100647.00
2024-02-20T09:40:25.368Z,100644.80
2024-02-20T09:43:06.852Z,100632.80
2024-02-20T09:45:47.457Z,100633.60
2024-02-20T09:48:24.991Z,100636.40
2024-02-20T09:51:03.065Z,100631.00
2024-02-20T09:53:41.256Z,100634.60
2024-02-20T09:56:20.294Z,100635.40
2024-02-20T09:58:55.278Z,100645.60
2024-02-20T10:01:32.786Z,100638.20
2024-02-20T10:04:12.071Z,100635.20
2024-02-20T10:06:47.437Z,100641.00
2024-02-20T10:09:24.141Z,100640.40
2024-02-20T10:11:59.364Z,100648.00
2024-02-20T10:14:34.497Z,100640.80
2024-02-20T10:17:09.532Z,100639.00
2024-02-20T10:19:46.312Z,100641.40
2024-02-20T10:22:30.490Z,100638.40
2024-02-20T10:25:15.654Z,100633.40
2024-02-20T10:27:51.291Z,100624.00
2024-02-20T10:30:26.860Z,100627.00
2024-02-20T10:33:02.225Z,100636.40
2024-02-20T10:35:41.446Z,100633.80
2024-02-20T10:38:22.950Z,100624.40
2024-02-20T10:41:01.213Z,100635.40
2024-02-20T10:43:39.027Z,100630.40
2024-02-20T10:46:15.315Z,100634.20
2024-02-20T10:48:57.663Z,100639.00
2024-02-20T10:51:42.797Z,100643.80
2024-02-20T10:54:19.925Z,100647.60
2024-02-20T10:56:59.280Z,100634.20
2024-02-20T10:59:37.292Z,100628.80
2024-02-20T11:02:12.269Z,100630.20
2024-02-20T11:04:48.976Z,100622.80
2024-02-20T11:07:26.231Z,100627.20
2024-02-20T11:10:23.732Z,100617.00
2024-02-20T11:12:58.701Z,100625.20
2024-02-20T11:15:34.085Z,100618.80
2024-02-20T11:18:22.497Z,100614.00
2024-02-20T11:21:08.788Z,100625.60
2024-02-20T11:23:44.450Z,100606.80
2024-02-20T11:26:19.401Z,100613.60
2024-02-20T11:28:57.893Z,100618.20
2024-02-20T11:31:34.918Z,100609.20
2024-02-20T11:34:23.120Z,100604.60
2024-02-20T11:36:58.210Z,100605.80
2024-02-20T11:39:33.230Z,100619.00
2024-02-20T11:42:09.003Z,100609.80
2024-02-20T11:44:47.028Z,100618.40
2024-02-20T11:47:22.828Z,100617.20
2024-02-20T11:50:20.058Z,100623.20
2024-02-20T11:53:14.603Z,100628.80
2024-02-20T11:55:54.835Z,100630.40
2024-02-20T11:58:30.696Z,100630.00
2024-02-20T12:01:26.488Z,100624.20
2024-02-20T12:04:09.283Z,100620.20
2024-02-20T12:06:44.195Z,100607.80
2024-02-20T12:09:25.086Z,100608.20
2024-02-20T12:11:59.811Z,100606.00
2024-02-20T12:14:34.677Z,100602.40
2024-02-20T12:17:09.780Z,100581.40
2024-02-20T12:19:44.854Z,100601.40
2024-02-20T12:22:23.177Z,100598.60
2024-02-20T12:25:10.455Z,100569.80
2024-02-20T12:27:46.250Z,100584.00
2024-02-20T12:30:22.213Z,100605.00
2024-02-20T12:32:57.231Z,100610.00
2024-02-20T12:35:33.394Z,100627.60
2024-02-20T12:38:09.708Z,100623.40
2024-02-20T12:40:44.977Z,100619.00
2024-02-20T12:43:20.226Z,100630.20
2024-02-20T12:45:56.211Z,100629.60
2024-02-20T12:48:33.313Z,100627.40
2024-02-20T12:51:08.333Z,100619.40
2024-02-20T12:53:44.536Z,100622.40
2024-02-20T12:56:19.608Z,100622.40
2024-02-20T12:58:54.706Z,100615.20
2024-02-20T13:01:30.101Z,100616.80
2024-02-20T13:04:08.926Z,100617.00
2024-02-20T13:06:43.781Z,100609.20
2024-02-20T13:09:19.802Z,100588.40
2024-02-20T13:12:01.101Z,100592.60
2024-02-20T13:14:36.078Z,100589.00
2024-02-20T13:17:13.727Z,100584.40
2024-02-20T13:19:48.547Z,100595.80
2024-02-20T13:22:23.107Z,100599.80
2024-02-20T13:24:58.017Z,100599.00
2024-02-20T13:27:32.485Z,100610.40
2024-02-20T13:30:07.834Z,100618.40
2024-02-20T13:32:48.828Z,100627.00
2024-02-20T13:35:23.695Z,100619.40
2024-02-20T13:37:58.313Z,100620.20
2024-02-20T13:40:32.927Z,100599.40
2024-02-20T13:43:10.784Z,100604.20
2024-02-20T13:45:54.531Z,100625.20
2024-02-20T13:48:30.152Z,100611.20
2024-02-20T13:51:06.306Z,100630.40
2024-02-20T13:53:45.279Z,100631.40
2024-02-20T13:56:22.288Z,100637.80
2024-02-20T13:58:57.351Z,100636.80
2024-02-20T14:01:35.037Z,100636.80
2024-02-20T14:04:21.368Z,100633.80
2024-02-20T14:06:59.474Z,100642.20
2024-02-20T14:09:47.569Z,100647.00
2024-02-20T14:12:31.777Z,100648.40
2024-02-20T14:15:13.566Z,100652.60
2024-02-20T14:20:42.407Z,100655.60
2024-02-20T14:23:17.517Z,100663.40
2024-02-20T14:25:52.614Z,100662.00
2024-02-20T14:28:40.236Z,100669.80
2024-02-20T14:31:17.901Z,100667.80
2024-02-20T14:33:53.320Z,100659.00
2024-02-20T14:36:30.274Z,100670.40
2024-02-20T14:39:06.533Z,100673.00
2024-02-20T14:41:42.054Z,100680.60
2024-02-20T14:44:23.842Z,100681.60
2024-02-20T14:46:59.659Z,100679.00
2024-02-20T14:49:36.026Z,100681.00
2024-02-20T14:52:12.697Z,100683.60
2024-02-20T14:54:48.591Z,100690.20
2024-02-20T14:57:24.187Z,100686.00
2024-02-20T15:00:00.851Z,100692.80
2024-02-20T15:02:37.370Z,100697.40
2024-02-20T15:05:16.231Z,100696.60
2024-02-20T15:07:51.530Z,100696.00
2024-02-20T15:10:30.126Z,100701.80
2024-02-20T15:13:07.063Z,100697.60
2024-02-20T15:16:33.061Z,100696.20
2024-02-20T15:19:13.541Z,100701.20
2024-02-20T15:21:49.834Z,100703.80
2024-02-20T15:24:24.530Z,100712.40
2024-02-20T15:26:59.760Z,100705.80
2024-02-20T15:29:35.594Z,100703.60
2024-02-20T15:32:13.883Z,100712.40
2024-02-20T15:34:50.153Z,100726.80
2024-02-20T15:37:25.153Z,100745.20
2024-02-20T15:40:00.117Z,100756.20
2024-02-20T15:42:35.572Z,100744.00
2024-02-20T15:45:12.698Z,100746.60
2024-02-20T15:47:47.346Z,100743.80
2024-02-20T15:51:39.594Z,100748.00
2024-02-20T15:54:14.454Z,100751.00
2024-02-20T15:56:51.242Z,100750.20
2024-02-20T15:59:53.322Z,100754.00
2024-02-20T16:02:27.891Z,100762.00
2024-02-20T16:05:02.566Z,100767.40
2024-02-20T16:08:08.807Z,100762.60
2024-02-20T16:10:45.232Z,100763.80
2024-02-20T16:13:19.854Z,100759.20
2024-02-20T16:15:55.064Z,100763.20
2024-02-20T16:18:30.039Z,100774.20
2024-02-20T16:21:05.378Z,100775.20
2024-02-20T16:23:40.268Z,100781.20
2024-02-20T16:26:22.076Z,100788.40
2024-02-20T16:28:57.652Z,100790.60
2024-02-20T16:31:41.845Z,100795.80
2024-02-20T16:34:18.920Z,100795.20
2024-02-20T16:37:01.176Z,100791.40
2024-02-20T16:39:40.247Z,100797.40
2024-02-20T16:42:15.163Z,100806.00
2024-02-20T16:44:50.238Z,100802.20
2024-02-20T16:47:27.272Z,100800.00
2024-02-20T16:50:02.306Z,100809.00
2024-02-20T16:52:37.949Z,100808.20
2024-02-20T16:55:13.846Z,100813.00
2024-02-20T16:57:59.944Z,100817.20
2024-02-20T17:00:40.816Z,100822.80
2024-02-20T17:03:19.569Z,100823.20
2024-02-20T17:05:56.917Z,100826.80
2024-02-20T17:08:36.347Z,100829.80
2024-02-20T17:11:16.483Z,100828.20
2024-02-20T17:13:52.295Z,100825.60
2024-02-20T17:16:28.460Z,100821.00
2024-02-20T17:19:04.194Z,100824.60
2024-02-20T17:21:41.211Z,100826.40
2024-02-20T17:24:17.477Z,100825.20
2024-02-20T17:26:59.192Z,100825.00
2024-02-20T17:29:39.109Z,100822.60
2024-02-20T17:32:15.172Z,100830.80
2024-02-20T17:34:50.615Z,100826.60
2024-02-20T17:37:29.614Z,100824.60
2024-02-20T17:40:07.145Z,100827.60
2024-02-20T17:42:52.661Z,100831.60
2024-02-20T17:45:32.731Z,100841.20
2024-02-20T17:48:36.951Z,100845.00
2024-02-20T17:51:28.109Z,100847.20
2024-02-20T17:54:05.488Z,100853.40
2024-02-20T17:56:45.040Z,100853.80
2024-02-20T17:59:24.258Z,100857.80
2024-02-20T18:01:59.615Z,100857.40
2024-02-20T18:04:36.284Z,100859.20
2024-02-20T18:07:12.523Z,100859.80
2024-02-20T18:09:48.589Z,100859.20
2024-02-20T18:12:23.573Z,100855.00
2024-02-20T18:15:00.400Z,100855.80
2024-02-20T18:17:36.666Z,100856.20
2024-02-20T18:20:15.252Z,100858.40
2024-02-20T18:22:50.307Z,100859.40
2024-02-20T18:25:25.378Z,100862.60
2024-02-20T18:28:00.907Z,100859.40
2024-02-20T18:30:35.935Z,100863.80
2024-02-20T18:33:12.647Z,100865.40
2024-02-20T18:35:48.539Z,100867.00
2024-02-20T18:38:27.110Z,100869.80
2024-02-20T18:41:03.693Z,100869.60
2024-02-20T18:43:40.896Z,100871.00
2024-02-20T18:46:17.435Z,100868.80
2024-02-20T18:48:52.899Z,100870.40
2024-02-20T19:03:01.748Z,100858.00
2024-02-20T19:05:36.816Z,100856.40
2024-02-20T19:08:12.139Z,100865.00
2024-02-20T19:10:47.238Z,100863.20
2024-02-20T19:13:22.700Z,100863.20
2024-02-20T19:15:58.223Z,100860.00
2024-02-20T19:18:34.484Z,100858.20
2024-02-20T19:21:11.361Z,100862.40
2024-02-20T19:23:57.887Z,100863.40
2024-02-20T19:26:42.443Z,100867.00
2024-02-20T19:29:17.341Z,100859.80
2024-02-20T19:31:51.813Z,100864.60
2024-02-20T19:34:27.205Z,100856.00
2024-02-20T19:37:01.825Z,100857.00
2024-02-20T19:39:36.806Z,100858.80
2024-02-20T19:42:11.709Z,100855.00
2024-02-20T19:44:46.845Z,100854.60
2024-02-20T19:47:23.929Z,100858.40
2024-02-20T19:49:59.915Z,100851.40
2024-02-20T19:52:41.424Z,100863.40
2024-02-20T19:55:33.536Z,100859.20
2024-02-20T19:58:42.477Z,100862.00
2024-02-20T20:01:43.371Z,100857.60
2024-02-20T20:04:19.269Z,100860.20
2024-02-20T20:06:54.147Z,100859.20
2024-02-20T20:09:29.378Z,100859.80
2024-02-20T20:12:04.461Z,100863.40
2024-02-20T20:14:39.190Z,100865.40
2024-02-20T20:17:13.591Z,100862.00
2024-02-20T20:19:48.037Z,100860.60
2024-02-20T20:22:22.733Z,100862.80
2024-02-20T20:24:57.410Z,100864.00
2024-02-20T20:27:31.673Z,100865.60
2024-02-20T20:30:07.008Z,100863.20
2024-02-20T20:32:42.435Z,100861.00
2024-02-20T20:35:21.758Z,100858.40
2024-02-20T20:37:58.128Z,100858.60
2024-02-20T20:40:35.590Z,100864.00
2024-02-20T20:43:10.868Z,100856.40
2024-02-20T20:45:46.524Z,100867.60
2024-02-20T20:48:23.789Z,100869.00
2024-02-20T20:51:15.757Z,100872.40
2024-02-20T20:53:53.067Z,100867.20
2024-02-20T20:56:34.710Z,100871.40
2024-02-20T20:59:31.684Z,100868.40
2024-02-20T21:02:14.811Z,100866.80
2024-02-20T21:04:53.361Z,100865.80
2024-02-20T21:07:30.057Z,100860.60
2024-02-20T21:10:07.419Z,100863.20
2024-02-20T21:12:44.230Z,100860.80
2024-02-20T21:15:20.404Z,100864.40
2024-02-20T21:17:58.248Z,100862.00
2024-02-20T21:20:33.477Z,100865.60
2024-02-20T21:23:09.675Z,100865.40
2024-02-20T21:25:45.254Z,100869.40
2024-02-20T21:28:22.867Z,100862.40
2024-02-20T21:30:58.545Z,100862.60
2024-02-20T21:33:33.990Z,100863.40
2024-02-20T21:36:10.611Z,100864.60
2024-02-20T21:38:46.046Z,100859.00
2024-02-20T21:41:21.792Z,100860.40
2024-02-20T21:43:56.777Z,100860.40
2024-02-20T21:46:32.584Z,100854.20
2024-02-20T21:49:08.070Z,100855.20
2024-02-20T21:51:43.154Z,100854.60
2024-02-20T21:54:18.782Z,100851.00
2024-02-20T21:56:55.863Z,100846.60
2024-02-20T21:59:31.730Z,100846.00
2024-02-20T22:02:07.876Z,100844.40
2024-02-20T22:04:43.096Z,100844.00
2024-02-20T22:07:18.422Z,100841.40
2024-02-20T22:09:53.579Z,100843.80
2024-02-20T22:12:28.513Z,100837.80
2024-02-20T22:15:07.421Z,100836.40
2024-02-20T22:17:42.812Z,100835.20
2024-02-20T22:20:19.835Z,100833.80
2024-02-20T22:22:57.428Z,100828.60
2024-02-20T22:25:34.500Z,100828.40
2024-02-20T22:28:10.924Z,100831.00
2024-02-20T22:30:46.011Z,100826.60
2024-02-20T22:33:21.319Z,100829.80
2024-02-20T22:35:57.452Z,100827.80
2024-02-20T22:38:34.696Z,100826.00
2024-02-20T22:41:19.795Z,100827.60
2024-02-20T22:43:55.429Z,100828.60
2024-02-20T22:46:30.663Z,100828.20
2024-02-20T22:49:07.170Z,100827.20
2024-02-20T22:51:42.785Z,100829.60
2024-02-20T22:54:18.494Z,100822.80
2024-02-20T22:56:56.223Z,100825.20
2024-02-20T22:59:32.455Z,100831.60
2024-02-20T23:02:09.638Z,100832.40
2024-02-20T23:04:44.281Z,100823.60
2024-02-20T23:07:18.806Z,100825.60
2024-02-20T23:09:53.455Z,100821.60
2024-02-20T23:12:27.842Z,100819.00
2024-02-20T23:15:02.657Z,100814.80
2024-02-20T23:17:37.191Z,100817.80
2024-02-20T23:20:14.752Z,100817.00
2024-02-20T23:22:49.209Z,100819.20
2024-02-20T23:25:24.477Z,100819.20
2024-02-20T23:28:01.771Z,100816.00
2024-02-20T23:30:37.207Z,100814.80
2024-02-20T23:33:12.552Z,100812.00
2024-02-20T23:35:46.971Z,100815.80
2024-02-20T23:38:20.934Z,100818.00
2024-02-20T23:40:56.494Z,100820.20
2024-02-20T23:43:32.436Z,100818.20
2024-02-20T23:46:07.032Z,100817.20
2024-02-20T23:48:41.511Z,100805.00
2024-02-20T23:51:16.294Z,100803.00
2024-02-20T23:53:50.180Z,100798.60
2024-02-20T23:56:24.325Z,100794.20
2024-02-20T23:58:58.725Z,100792.60
